createdAt,value
2017-11-13T00:00:57.458Z,6.60
2017-11-13T00:03:25.797Z,5.87
2017-11-13T00:05:53.390Z,5.55
2017-11-13T00:08:21.802Z,5.50
2017-11-13T00:10:49.389Z,4.37
2017-11-13T00:13:16.964Z,5.78
2017-11-13T00:15:44.560Z,7.28
2017-11-13T00:18:12.154Z,5.20
2017-11-13T00:20:39.765Z,9.65
2017-11-13T00:23:08.102Z,5.25
2017-11-13T00:25:35.673Z,5.57
2017-11-13T00:28:03.277Z,6.70
2017-11-13T00:30:30.842Z,6.68
2017-11-13T00:32:58.429Z,5.60
2017-11-13T00:35:26.002Z,6.40
2017-11-13T00:37:53.612Z,6.05
2017-11-13T00:40:21.173Z,6.05
2017-11-13T00:42:48.742Z,6.43
2017-11-13T00:45:16.345Z,7.65
2017-11-13T00:47:43.924Z,6.05
2017-11-13T00:50:12.276Z,6.53
2017-11-13T00:52:39.849Z,6.85
2017-11-13T00:55:07.444Z,7.60
2017-11-13T00:57:35.131Z,6.73
2017-11-13T01:00:02.708Z,9.85
2017-11-13T01:02:30.319Z,7.00
2017-11-13T01:04:57.956Z,8.18
2017-11-13T01:07:26.329Z,7.90
2017-11-13T01:09:54.749Z,6.35
2017-11-13T01:12:22.514Z,6.72
2017-11-13T01:14:50.172Z,6.10
2017-11-13T01:17:17.833Z,7.15
2017-11-13T01:19:45.428Z,7.32
2017-11-13T01:22:12.989Z,5.45
2017-11-13T01:24:40.556Z,6.35
2017-11-13T01:27:08.171Z,8.48
2017-11-13T01:29:35.744Z,5.78
2017-11-13T01:32:03.349Z,6.07
2017-11-13T01:34:31.681Z,4.95
2017-11-13T01:36:59.254Z,7.07
2017-11-13T01:39:26.849Z,5.60
2017-11-13T01:41:55.261Z,5.60
2017-11-13T01:44:22.856Z,6.35
2017-11-13T01:46:50.430Z,5.25
2017-11-13T01:49:18.043Z,7.87
2017-11-13T01:51:45.626Z,7.78
2017-11-13T01:54:13.190Z,4.95
2017-11-13T01:56:40.815Z,5.07
2017-11-13T01:59:08.371Z,5.80
2017-11-13T02:01:35.944Z,5.87
2017-11-13T02:04:03.529Z,6.28
2017-11-13T02:06:32.008Z,9.50
2017-11-13T02:08:59.732Z,5.80
2017-11-13T02:11:27.548Z,6.00
2017-11-13T02:13:55.889Z,7.80
2017-11-13T02:16:23.446Z,6.28
2017-11-13T02:18:51.044Z,7.37
2017-11-13T02:21:19.377Z,7.35
2017-11-13T02:23:46.973Z,6.32
2017-11-13T02:26:14.686Z,7.25
2017-11-13T02:28:42.289Z,8.23
2017-11-13T02:31:09.868Z,6.57
2017-11-13T02:33:38.196Z,6.53
2017-11-13T02:36:05.781Z,7.82
2017-11-13T02:38:33.340Z,5.80
2017-11-13T02:41:00.932Z,6.05
2017-11-13T02:43:28.502Z,7.78
2017-11-13T02:45:56.093Z,7.25
2017-11-13T02:48:23.677Z,12.20
2017-11-13T02:50:51.241Z,7.60
2017-11-13T02:53:18.826Z,8.07
2017-11-13T02:55:46.389Z,10.32
2017-11-13T02:58:13.978Z,8.95
2017-11-13T03:00:41.540Z,6.90
2017-11-13T03:03:09.137Z,8.35
2017-11-13T03:05:37.471Z,9.32
2017-11-13T03:08:05.100Z,7.45
2017-11-13T03:10:32.689Z,7.07
2017-11-13T03:13:00.248Z,8.57
2017-11-13T03:15:27.850Z,7.60
2017-11-13T03:17:56.185Z,7.00
2017-11-13T03:20:23.752Z,5.93
2017-11-13T03:22:51.344Z,8.85
2017-11-13T03:25:19.672Z,8.30
2017-11-13T03:27:47.268Z,6.82
2017-11-13T03:30:14.830Z,7.87
2017-11-13T03:32:42.438Z,8.70
2017-11-13T03:35:09.997Z,7.60
2017-11-13T03:37:37.573Z,7.47
2017-11-13T03:40:05.172Z,8.43
2017-11-13T03:42:33.501Z,8.10
2017-11-13T03:45:01.109Z,7.57
2017-11-13T03:47:29.436Z,7.80
2017-11-13T03:49:57.082Z,6.28
2017-11-13T03:52:24.637Z,9.32
2017-11-13T03:54:52.207Z,10.55
2017-11-13T03:57:19.865Z,8.13
2017-11-13T03:59:47.425Z,8.77
2017-11-13T04:02:15.025Z,12.68
2017-11-13T04:04:42.602Z,10.00
2017-11-13T04:07:11.148Z,6.72
2017-11-13T04:09:38.723Z,10.27
2017-11-13T04:12:06.376Z,9.38
2017-11-13T04:14:34.068Z,9.55
2017-11-13T04:17:02.585Z,9.00
2017-11-13T04:19:30.184Z,8.68
2017-11-13T04:21:57.757Z,6.75
2017-11-13T04:24:26.138Z,9.40
2017-11-13T04:26:54.465Z,7.93
2017-11-13T04:29:22.029Z,7.12
2017-11-13T04:31:49.616Z,11.90
2017-11-13T04:34:17.288Z,9.07
2017-11-13T04:36:44.889Z,8.73
2017-11-13T04:39:12.457Z,10.73
2017-11-13T04:41:40.028Z,9.32
2017-11-13T04:44:07.712Z,8.77
2017-11-13T04:46:35.274Z,10.13
2017-11-13T04:49:02.879Z,8.93
2017-11-13T04:51:30.470Z,13.82
2017-11-13T04:53:58.041Z,12.15
2017-11-13T04:56:25.713Z,11.18
2017-11-13T04:58:53.427Z,12.63
2017-11-13T05:01:21.022Z,11.45
2017-11-13T05:03:48.588Z,10.75
2017-11-13T05:06:16.256Z,13.35
2017-11-13T05:08:43.980Z,12.25
2017-11-13T05:11:11.553Z,14.45
2017-11-13T05:13:39.147Z,10.52
2017-11-13T05:16:07.496Z,12.88
2017-11-13T05:18:35.108Z,12.48
2017-11-13T05:21:02.689Z,13.73
2017-11-13T05:23:30.261Z,15.00
2017-11-13T05:25:57.880Z,13.70
2017-11-13T05:28:25.500Z,15.30
2017-11-13T05:30:53.133Z,14.63
2017-11-13T05:33:20.733Z,14.70
2017-11-13T05:35:49.154Z,14.48
2017-11-13T05:38:16.765Z,17.15
2017-11-13T05:40:45.137Z,13.25
2017-11-13T05:43:12.734Z,12.90
2017-11-13T05:45:40.366Z,17.27
2017-11-13T05:48:08.702Z,17.55
2017-11-13T05:50:36.401Z,16.10
2017-11-13T05:53:04.002Z,18.52
2017-11-13T05:55:31.572Z,15.77
2017-11-13T05:57:59.180Z,15.32
2017-11-13T06:00:26.885Z,16.95
2017-11-13T06:02:54.488Z,19.58
2017-11-13T06:05:22.053Z,16.20
2017-11-13T06:07:49.652Z,19.90
2017-11-13T06:10:17.211Z,15.00
2017-11-13T06:12:44.812Z,15.07
2017-11-13T06:15:12.403Z,18.50
2017-11-13T06:17:40.749Z,19.90
2017-11-13T06:20:08.348Z,14.77
2017-11-13T06:22:36.684Z,17.15
2017-11-13T06:25:04.296Z,17.67
2017-11-13T06:27:31.901Z,21.05
2017-11-13T06:29:59.477Z,20.23
2017-11-13T06:32:27.101Z,16.50
2017-11-13T06:34:54.665Z,23.80
2017-11-13T06:37:22.305Z,21.70
2017-11-13T06:39:49.928Z,20.00
2017-11-13T06:42:18.284Z,19.35
2017-11-13T06:44:45.876Z,21.80
2017-11-13T06:47:13.449Z,19.70
2017-11-13T06:49:41.234Z,19.95
2017-11-13T06:52:08.800Z,22.23
2017-11-13T06:54:36.370Z,20.48
2017-11-13T06:57:03.988Z,24.70
2017-11-13T06:59:31.553Z,18.55
2017-11-13T07:01:59.175Z,19.90
2017-11-13T07:04:27.517Z,20.25
2017-11-13T07:06:55.128Z,18.23
2017-11-13T07:09:22.765Z,17.20
2017-11-13T07:11:51.105Z,18.27
2017-11-13T07:14:18.749Z,23.23
2017-11-13T07:16:46.357Z,22.13
2017-11-13T07:19:13.948Z,16.80
2017-11-13T07:21:41.539Z,22.55
2017-11-13T07:24:09.100Z,18.87
2017-11-13T07:26:36.751Z,18.80
2017-11-13T07:29:04.325Z,19.58
2017-11-13T07:31:31.920Z,21.30
2017-11-13T07:34:00.428Z,16.15
2017-11-13T07:36:28.004Z,20.60
2017-11-13T07:38:55.725Z,17.05
2017-11-13T07:41:24.100Z,19.12
2017-11-13T07:43:52.445Z,15.57
2017-11-13T07:46:20.048Z,18.25
2017-11-13T07:48:47.624Z,16.27
2017-11-13T07:51:15.297Z,18.87
2017-11-13T07:53:42.901Z,17.50
2017-11-13T07:56:10.468Z,16.50
2017-11-13T07:58:38.829Z,18.02
2017-11-13T08:01:06.424Z,19.98
2017-11-13T08:03:34.011Z,17.52
2017-11-13T08:06:01.632Z,19.15
2017-11-13T08:08:29.969Z,16.42
2017-11-13T08:10:57.549Z,14.57
2017-11-13T08:13:25.166Z,15.90
2017-11-13T08:15:52.733Z,18.02
2017-11-13T08:18:20.333Z,16.85
2017-11-13T08:20:48.725Z,13.15
2017-11-13T08:23:17.084Z,11.77
2017-11-13T08:25:45.468Z,9.67
2017-11-13T08:28:13.830Z,12.57
2017-11-13T08:30:41.508Z,13.27
2017-11-13T08:33:09.844Z,11.30
2017-11-13T08:35:37.413Z,8.30
2017-11-13T08:38:05.009Z,8.70
2017-11-13T08:40:33.348Z,11.33
2017-11-13T08:43:00.997Z,7.07
2017-11-13T08:45:28.571Z,7.70
2017-11-13T08:47:56.179Z,9.47
2017-11-13T08:50:23.768Z,7.68
2017-11-13T08:52:51.356Z,7.45
2017-11-13T08:55:18.925Z,11.65
2017-11-13T08:57:47.316Z,12.90
2017-11-13T09:00:15.732Z,10.63
2017-11-13T09:02:43.297Z,13.85
2017-11-13T09:05:10.942Z,17.98
2017-11-13T09:07:38.521Z,12.02
2017-11-13T09:10:06.128Z,16.35
2017-11-13T09:12:34.629Z,16.58
2017-11-13T09:15:03.167Z,16.27
2017-11-13T09:17:30.786Z,18.90
2017-11-13T09:19:58.377Z,17.92
2017-11-13T09:22:26.006Z,21.45
2017-11-13T09:24:53.682Z,19.15
2017-11-13T09:27:21.341Z,16.92
2017-11-13T09:29:48.919Z,16.37
2017-11-13T09:32:16.488Z,14.02
2017-11-13T09:34:44.204Z,16.17
2017-11-13T09:37:11.865Z,14.05
2017-11-13T09:39:39.610Z,17.20
2017-11-13T09:42:07.236Z,15.68
2017-11-13T09:44:35.620Z,16.85
2017-11-13T09:47:04.151Z,13.80
2017-11-13T09:49:31.772Z,17.42
2017-11-13T09:52:00.300Z,14.00
2017-11-13T09:54:27.918Z,12.20
2017-11-13T09:56:56.282Z,11.50
2017-11-13T09:59:24.916Z,18.92
2017-11-13T10:01:52.674Z,15.70
2017-11-13T10:04:20.297Z,14.10
2017-11-13T10:06:47.981Z,15.93
2017-11-13T10:09:15.601Z,21.10
2017-11-13T10:11:44.003Z,15.23
2017-11-13T10:14:11.632Z,14.63
2017-11-13T10:16:39.345Z,15.63
2017-11-13T10:19:07.005Z,14.43
2017-11-13T10:21:34.642Z,13.83
2017-11-13T10:24:02.278Z,13.77
2017-11-13T10:26:30.810Z,18.55
2017-11-13T10:28:58.434Z,14.10
2017-11-13T10:31:26.133Z,12.02
2017-11-13T10:33:53.777Z,16.65
2017-11-13T10:36:21.441Z,12.27
2017-11-13T10:38:49.101Z,17.53
2017-11-13T10:41:16.757Z,10.97
2017-11-13T10:43:44.367Z,12.35
2017-11-13T10:46:12.041Z,13.67
2017-11-13T10:48:39.653Z,11.27
2017-11-13T10:51:07.307Z,13.83
2017-11-13T10:53:34.916Z,14.17
2017-11-13T10:56:02.573Z,12.70
2017-11-13T10:58:30.181Z,13.40
2017-11-13T11:00:57.843Z,9.07
2017-11-13T11:03:25.497Z,16.52
2017-11-13T11:05:53.145Z,19.83
2017-11-13T11:08:20.942Z,12.77
2017-11-13T11:10:48.617Z,12.50
2017-11-13T11:13:16.779Z,12.52
2017-11-13T11:15:46.909Z,13.10
2017-11-13T11:21:24.944Z,11.82
2017-11-13T11:23:55.118Z,12.80
2017-11-13T11:26:30.278Z,14.65
2017-11-13T11:32:20.780Z,19.10
2017-11-13T11:35:04.105Z,14.32
2017-11-13T11:37:37.481Z,12.57
2017-11-13T11:40:05.163Z,18.62
2017-11-13T11:42:32.808Z,18.92
2017-11-13T11:45:10.448Z,18.55
2017-11-13T11:47:43.767Z,18.25
2017-11-13T11:50:12.313Z,18.62
2017-11-13T11:52:39.955Z,17.60
2017-11-13T11:55:11.308Z,19.00
2017-11-13T11:57:39.028Z,19.37
2017-11-13T12:00:07.440Z,19.20
2017-11-13T12:02:35.136Z,22.52
2017-11-13T12:05:02.797Z,23.83
2017-11-13T12:07:30.476Z,18.67
2017-11-13T12:09:58.903Z,19.92
2017-11-13T12:12:26.569Z,22.25
2017-11-13T12:14:54.326Z,21.05
2017-11-13T12:17:21.968Z,21.70
2017-11-13T12:19:49.647Z,24.05
2017-11-13T12:22:17.263Z,20.20
2017-11-13T12:24:45.655Z,19.55
2017-11-13T12:27:13.314Z,19.70
2017-11-13T12:29:40.940Z,18.02
2017-11-13T12:32:08.589Z,18.42
2017-11-13T12:34:36.225Z,19.45
2017-11-13T12:37:03.893Z,20.77
2017-11-13T12:39:31.513Z,18.83
2017-11-13T12:41:59.134Z,18.70
2017-11-13T12:44:26.867Z,12.88
2017-11-13T12:46:54.524Z,8.05
2017-11-13T12:49:22.188Z,6.87
2017-11-13T12:51:49.876Z,7.33
2017-11-13T12:54:17.508Z,9.43
2017-11-13T12:56:45.125Z,10.27
2017-11-13T12:59:13.756Z,11.10
2017-11-13T13:01:41.388Z,13.83
2017-11-13T13:04:09.033Z,11.83
2017-11-13T13:06:37.445Z,12.03
2017-11-13T13:09:05.071Z,12.07
2017-11-13T13:11:33.460Z,10.77
2017-11-13T13:14:01.204Z,8.00
2017-11-13T13:16:29.710Z,8.30
2017-11-13T13:18:57.313Z,11.80
2017-11-13T13:21:24.921Z,7.40
2017-11-13T13:23:53.331Z,10.17
2017-11-13T13:26:20.969Z,8.03
2017-11-13T13:28:48.778Z,5.10
2017-11-13T13:31:16.384Z,7.90
2017-11-13T13:33:43.999Z,3.80
2017-11-13T13:36:11.736Z,4.40
2017-11-13T13:38:39.365Z,5.57
2017-11-13T13:41:06.991Z,4.50
2017-11-13T13:43:34.716Z,3.33
2017-11-13T13:46:02.360Z,7.90
2017-11-13T13:48:29.993Z,4.80
2017-11-13T13:50:58.378Z,8.20
2017-11-13T13:53:26.772Z,8.30
2017-11-13T13:55:54.440Z,8.07
2017-11-13T13:58:22.108Z,14.83
2017-11-13T14:00:49.874Z,9.00
2017-11-13T14:03:17.555Z,14.37
2017-11-13T14:05:45.200Z,14.07
2017-11-13T14:08:12.794Z,7.70
2017-11-13T14:10:40.477Z,7.83
2017-11-13T14:13:08.921Z,13.13
2017-11-13T14:15:36.643Z,4.10
2017-11-13T14:18:04.322Z,2.70
2017-11-13T14:20:31.949Z,3.17
2017-11-13T14:22:59.603Z,2.63
2017-11-13T14:25:28.071Z,5.00
2017-11-13T14:27:56.504Z,3.40
2017-11-13T14:30:24.121Z,4.80
2017-11-13T14:32:52.717Z,3.27
2017-11-13T14:35:20.529Z,4.00
2017-11-13T14:37:48.146Z,8.37
2017-11-13T14:40:15.793Z,5.77
2017-11-13T14:42:43.399Z,8.83
2017-11-13T14:45:11.246Z,15.17
2017-11-13T14:47:38.969Z,14.57
2017-11-13T14:50:06.609Z,8.37
2017-11-13T14:52:34.289Z,7.00
2017-11-13T14:55:02.144Z,9.23
2017-11-13T14:57:29.846Z,12.13
2017-11-13T14:59:57.460Z,9.70
2017-11-13T15:02:25.065Z,6.93
2017-11-13T15:04:52.701Z,7.20
2017-11-13T15:07:21.033Z,5.37
2017-11-13T15:09:48.673Z,13.13
2017-11-13T15:12:16.242Z,6.10
2017-11-13T15:14:43.813Z,6.30
2017-11-13T15:17:11.492Z,7.27
2017-11-13T15:19:39.059Z,10.63
2017-11-13T15:22:07.403Z,4.60
2017-11-13T15:24:34.973Z,7.53
2017-11-13T15:27:02.741Z,7.20
2017-11-13T15:29:30.300Z,6.97
2017-11-13T15:31:57.924Z,7.67
2017-11-13T15:34:25.530Z,12.57
2017-11-13T15:36:53.143Z,7.43
2017-11-13T15:39:20.752Z,10.87
2017-11-13T15:41:49.156Z,7.40
2017-11-13T15:44:16.757Z,9.40
2017-11-13T15:46:44.399Z,11.43
2017-11-13T15:49:12.006Z,9.13
2017-11-13T15:51:39.592Z,6.93
2017-11-13T15:54:07.949Z,10.50
2017-11-13T15:56:36.324Z,14.18
2017-11-13T15:59:03.896Z,7.70
2017-11-13T16:01:32.264Z,9.88
2017-11-13T16:03:59.850Z,10.87
2017-11-13T16:06:27.528Z,10.75
2017-11-13T16:08:55.189Z,13.57
2017-11-13T16:11:22.771Z,10.27
2017-11-13T16:13:50.336Z,9.00
2017-11-13T16:16:17.966Z,10.88
2017-11-13T16:18:45.544Z,11.30
2017-11-13T16:21:13.112Z,11.83
2017-11-13T16:23:40.692Z,12.70
2017-11-13T16:26:09.064Z,15.23
2017-11-13T16:28:36.640Z,15.17
2017-11-13T16:31:05.033Z,15.15
2017-11-13T16:33:32.629Z,10.83
2017-11-13T16:36:00.273Z,17.50
2017-11-13T16:38:27.881Z,9.60
2017-11-13T16:40:56.224Z,13.13
2017-11-13T16:43:23.843Z,12.40
2017-11-13T16:45:52.284Z,11.27
2017-11-13T16:48:19.850Z,14.40
2017-11-13T16:50:47.460Z,12.37
2017-11-13T16:53:15.071Z,13.40
2017-11-13T16:55:42.674Z,21.43
2017-11-13T16:58:10.255Z,20.02
2017-11-13T17:00:37.822Z,18.27
2017-11-13T17:03:05.446Z,11.40
2017-11-13T17:05:33.145Z,17.08
2017-11-13T17:08:00.749Z,13.10
2017-11-13T17:10:29.087Z,15.83
2017-11-13T17:12:56.706Z,22.48
2017-11-13T17:15:24.348Z,16.25
2017-11-13T17:17:52.743Z,17.15
2017-11-13T17:20:20.324Z,13.05
2017-11-13T17:22:47.900Z,12.57
2017-11-13T17:25:15.506Z,11.83
2017-11-13T17:27:43.089Z,18.17
2017-11-13T17:30:10.684Z,19.27
2017-11-13T17:32:38.301Z,16.23
2017-11-13T17:35:05.901Z,19.87
2017-11-13T17:37:33.511Z,15.20
2017-11-13T17:40:01.085Z,20.70
2017-11-13T17:42:28.705Z,12.45
2017-11-13T17:44:57.077Z,23.00
2017-11-13T17:47:25.461Z,18.73
2017-11-13T17:49:53.825Z,16.00
2017-11-13T17:52:22.209Z,22.40
2017-11-13T17:54:49.829Z,22.07
2017-11-13T17:57:17.401Z,18.17
2017-11-13T17:59:45.152Z,16.90
2017-11-13T18:02:12.812Z,21.70
2017-11-13T18:04:40.452Z,36.58
2017-11-13T18:07:08.059Z,32.92
2017-11-13T18:09:35.646Z,18.25
2017-11-13T18:12:04.061Z,26.62
2017-11-13T18:14:31.667Z,24.45
2017-11-13T18:17:00.048Z,27.20
2017-11-13T18:19:28.399Z,21.63
2017-11-13T18:21:56.021Z,22.47
2017-11-13T18:24:23.616Z,17.90
2017-11-13T18:26:51.450Z,26.83
2017-11-13T18:29:19.040Z,19.75
2017-11-13T18:31:46.633Z,23.05
2017-11-13T18:34:15.046Z,17.55
2017-11-13T18:36:42.653Z,22.55
2017-11-13T18:39:10.254Z,21.03
2017-11-13T18:41:37.830Z,28.63
2017-11-13T18:44:05.409Z,29.33
2017-11-13T18:46:33.146Z,26.70
2017-11-13T18:49:00.766Z,29.05
2017-11-13T18:51:29.183Z,28.80
2017-11-13T18:53:56.761Z,30.33
2017-11-13T18:56:24.393Z,22.27
2017-11-13T18:58:51.960Z,19.62
2017-11-13T19:01:19.569Z,35.03
2017-11-13T19:03:47.199Z,29.05
2017-11-13T19:06:14.782Z,34.15
2017-11-13T19:08:42.409Z,31.40
2017-11-13T19:11:09.992Z,31.95
2017-11-13T19:13:37.616Z,29.43
2017-11-13T19:16:05.279Z,39.17
2017-11-13T19:18:32.885Z,33.08
2017-11-13T19:21:00.513Z,26.35
2017-11-13T19:23:28.132Z,35.80
2017-11-13T19:25:55.717Z,30.43
2017-11-13T19:28:23.318Z,24.30
2017-11-13T19:30:50.903Z,32.88
2017-11-13T19:33:18.556Z,33.67
2017-11-13T19:35:46.937Z,26.23
2017-11-13T19:38:15.310Z,25.42
2017-11-13T19:40:43.732Z,26.65
2017-11-13T19:43:11.348Z,32.42
2017-11-13T19:45:39.729Z,23.10
2017-11-13T19:48:07.327Z,32.30
2017-11-13T19:50:34.980Z,34.20
2017-11-13T19:53:02.569Z,39.45
2017-11-13T19:55:30.164Z,40.53
2017-11-13T19:57:58.644Z,37.00
2017-11-13T20:00:27.022Z,28.90
2017-11-13T20:02:55.418Z,27.55
2017-11-13T20:05:23.309Z,26.17
2017-11-13T20:07:51.165Z,30.50
2017-11-13T20:10:19.237Z,32.10
2017-11-13T20:12:47.212Z,31.80
2017-11-13T20:15:15.281Z,24.33
2017-11-13T20:17:44.163Z,29.87
2017-11-13T20:20:12.233Z,24.73
2017-11-13T20:22:40.408Z,31.58
2017-11-13T20:25:08.272Z,34.17
2017-11-13T20:27:36.278Z,27.87
2017-11-13T20:30:04.824Z,29.67
2017-11-13T20:32:32.456Z,23.83
2017-11-13T20:35:00.138Z,38.35
2017-11-13T20:37:27.817Z,29.98
2017-11-13T20:39:55.468Z,27.50
2017-11-13T20:42:23.095Z,27.20
2017-11-13T20:44:50.788Z,29.92
2017-11-13T20:47:18.393Z,28.27
2017-11-13T20:49:46.863Z,32.00
2017-11-13T20:52:15.237Z,26.52
2017-11-13T20:54:42.972Z,29.98
2017-11-13T20:57:10.624Z,28.38
2017-11-13T20:59:38.516Z,34.35
2017-11-13T21:02:06.140Z,32.03
2017-11-13T21:04:33.728Z,24.77
2017-11-13T21:07:01.336Z,38.55
2017-11-13T21:09:29.689Z,36.75
2017-11-13T21:11:58.083Z,32.38
2017-11-13T21:14:26.433Z,26.00
2017-11-13T21:16:54.168Z,28.95
2017-11-13T21:19:21.891Z,30.57
2017-11-13T21:21:50.232Z,28.40
2017-11-13T21:24:17.806Z,32.95
2017-11-13T21:26:45.437Z,33.67
2017-11-13T21:29:13.089Z,30.35
2017-11-13T21:31:40.668Z,32.58
2017-11-13T21:34:08.276Z,35.83
2017-11-13T21:36:35.855Z,42.70
2017-11-13T21:39:03.577Z,27.08
2017-11-13T21:41:32.004Z,35.25
2017-11-13T21:43:59.629Z,37.00
2017-11-13T21:46:27.223Z,36.45
2017-11-13T21:48:54.829Z,26.98
2017-11-13T21:51:22.434Z,30.75
2017-11-13T21:53:50.014Z,28.48
2017-11-13T21:56:17.755Z,27.67
2017-11-13T21:58:45.582Z,32.22
2017-11-13T22:01:13.945Z,30.77
2017-11-13T22:03:41.536Z,31.55
2017-11-13T22:06:09.154Z,38.03
2017-11-13T22:08:36.738Z,30.98
2017-11-13T22:11:05.320Z,37.10
2017-11-13T22:13:33.675Z,34.67
2017-11-13T22:16:01.295Z,40.63
2017-11-13T22:18:28.917Z,37.80
2017-11-13T22:20:57.305Z,39.78
2017-11-13T22:23:25.016Z,31.98
2017-11-13T22:25:52.755Z,47.80
2017-11-13T22:28:20.464Z,39.65
2017-11-13T22:30:48.054Z,32.72
2017-11-13T22:33:15.648Z,38.63
2017-11-13T22:35:43.353Z,37.97
2017-11-13T22:38:11.702Z,34.40
2017-11-13T22:40:39.310Z,41.67
2017-11-13T22:43:06.882Z,35.45
2017-11-13T22:45:34.504Z,31.80
2017-11-13T22:48:02.853Z,38.83
2017-11-13T22:50:30.557Z,35.72
2017-11-13T22:52:59.024Z,33.40
2017-11-13T22:55:27.392Z,32.80
2017-11-13T22:57:54.973Z,37.17
2017-11-13T23:00:23.343Z,36.90
2017-11-13T23:02:51.717Z,31.05
2017-11-13T23:05:20.091Z,31.70
2017-11-13T23:07:48.573Z,34.22
2017-11-13T23:10:16.978Z,35.55
2017-11-13T23:12:44.653Z,43.08
2017-11-13T23:15:12.213Z,37.35
2017-11-13T23:17:39.828Z,38.17
2017-11-13T23:20:08.180Z,37.85
2017-11-13T23:22:35.812Z,34.08
2017-11-13T23:25:03.382Z,38.22
2017-11-13T23:27:30.977Z,27.73
2017-11-13T23:29:59.508Z,38.88
2017-11-13T23:32:27.172Z,34.72
2017-11-13T23:34:54.844Z,32.53
2017-11-13T23:37:22.409Z,33.58
2017-11-13T23:39:50.005Z,39.90
2017-11-13T23:42:18.354Z,28.77
2017-11-13T23:44:45.970Z,26.20
2017-11-13T23:47:13.571Z,32.20
2017-11-13T23:49:41.152Z,32.20
2017-11-13T23:52:09.536Z,37.50
2017-11-13T23:54:37.893Z,36.47
2017-11-13T23:57:05.467Z,33.13
2017-11-13T23:59:33.843Z,34.97
